Terminal Aerodrome Forecast
Issued by NWS

Home | Current Version | Previous Version | Text Only | Print | Product List | Glossary On
Versions: 1 2 3 4 5 6 7 8 9 10 11 12
000
FTUS45 KLKN 210530
TAFEKO
TAF
KEKO 210530Z 2106/2206 23006KT P6SM SCT150
     FM211000 22003KT P6SM VCFG BKN150
     FM211800 24011KT P6SM OVC050=

USA.gov is the U.S. government's official web portal to all federal, state and local government web resources and services.